createdAt,value
2023-03-05T00:01:16.682Z,51.30
2023-03-05T00:03:44.779Z,51.50
2023-03-05T00:06:12.414Z,51.50
2023-03-05T00:08:39.738Z,51.50
2023-03-05T00:11:11.845Z,51.50
2023-03-05T00:13:39.688Z,51.50
2023-03-05T00:16:10.454Z,51.50
2023-03-05T00:18:38.632Z,51.50
2023-03-05T00:21:23.287Z,51.40
2023-03-05T00:23:51.172Z,51.50
2023-03-05T00:26:23.648Z,51.60
2023-03-05T00:28:52.460Z,51.60
2023-03-05T00:31:26.556Z,51.60
2023-03-05T00:33:57.764Z,51.60
2023-03-05T00:36:30.581Z,51.60
2023-03-05T00:38:58.549Z,51.70
2023-03-05T00:41:30.627Z,51.70
2023-03-05T00:43:57.942Z,51.90
2023-03-05T00:46:27.505Z,51.80
2023-03-05T00:48:57.625Z,51.90
2023-03-05T00:51:27.478Z,52.00
2023-03-05T00:53:55.572Z,51.80
2023-03-05T00:56:25.105Z,51.90
2023-03-05T00:58:53.400Z,51.70
2023-03-05T01:01:20.734Z,51.70
2023-03-05T01:03:50.471Z,51.80
2023-03-05T01:06:18.393Z,51.70
2023-03-05T01:08:45.896Z,51.70
2023-03-05T01:11:13.721Z,51.70
2023-03-05T01:13:43.502Z,51.80
2023-03-05T01:16:13.187Z,51.80
2023-03-05T01:18:41.039Z,51.70
2023-03-05T01:21:08.804Z,51.80
2023-03-05T01:23:37.418Z,51.80
2023-03-05T01:26:08.528Z,51.90
2023-03-05T01:28:35.937Z,51.70
2023-03-05T01:31:09.871Z,51.70
2023-03-05T01:33:37.292Z,51.90
2023-03-05T01:36:09.019Z,51.90
2023-03-05T01:38:36.132Z,52.00
2023-03-05T01:41:03.389Z,52.00
2023-03-05T01:43:33.857Z,51.90
2023-03-05T01:46:26.529Z,51.90
2023-03-05T01:48:59.680Z,52.20
2023-03-05T01:51:29.642Z,52.10
2023-03-05T01:54:00.531Z,52.30
2023-03-05T01:56:29.938Z,52.60
2023-03-05T01:59:03.558Z,53.00
2023-03-05T02:01:40.995Z,53.30
2023-03-05T02:04:15.873Z,53.50
2023-03-05T02:06:44.792Z,53.90
2023-03-05T02:09:12.227Z,54.00
2023-03-05T02:11:39.876Z,54.00
2023-03-05T02:14:10.149Z,54.20
2023-03-05T02:16:43.743Z,54.20
2023-03-05T02:19:17.322Z,54.40
2023-03-05T02:21:47.681Z,54.50
2023-03-05T02:24:17.272Z,54.70
2023-03-05T02:26:48.855Z,54.80
2023-03-05T02:29:20.711Z,55.00
2023-03-05T02:31:50.318Z,55.10
2023-03-05T02:34:19.988Z,55.00
2023-03-05T02:36:50.769Z,55.10
2023-03-05T02:39:20.318Z,55.20
2023-03-05T02:41:50.049Z,55.20
2023-03-05T02:44:17.309Z,55.20
2023-03-05T02:46:44.634Z,55.00
2023-03-05T02:49:16.986Z,55.10
2023-03-05T02:51:46.455Z,54.90
2023-03-05T02:54:13.696Z,54.90
2023-03-05T02:56:40.979Z,54.90
2023-03-05T02:59:10.770Z,54.90
2023-03-05T03:01:40.439Z,54.90
2023-03-05T03:04:10.056Z,54.90
2023-03-05T03:06:39.699Z,55.00
2023-03-05T03:09:06.960Z,55.10
2023-03-05T03:11:34.286Z,55.00
2023-03-05T03:14:03.653Z,55.10
2023-03-05T03:16:30.889Z,55.10
2023-03-05T03:18:58.157Z,55.00
2023-03-05T03:21:28.268Z,54.70
2023-03-05T03:23:55.602Z,54.60
2023-03-05T03:26:22.863Z,54.60
2023-03-05T03:28:52.403Z,54.90
2023-03-05T03:31:22.087Z,54.60
2023-03-05T03:33:49.675Z,54.60
2023-03-05T03:36:17.039Z,54.60
2023-03-05T03:38:46.708Z,54.50
2023-03-05T03:41:20.080Z,54.50
2023-03-05T03:43:47.341Z,54.50
2023-03-05T03:46:17.653Z,54.50
2023-03-05T03:48:44.964Z,54.50
2023-03-05T03:51:12.204Z,54.40
2023-03-05T03:53:39.566Z,54.50
2023-03-05T03:56:07.141Z,54.20
2023-03-05T03:58:36.535Z,54.10
2023-03-05T04:01:04.001Z,54.10
2023-03-05T04:03:31.395Z,54.00
2023-03-05T04:06:01.085Z,53.80
2023-03-05T04:08:28.468Z,54.10
2023-03-05T04:10:55.725Z,54.10
2023-03-05T04:13:23.037Z,54.00
2023-03-05T04:15:50.541Z,53.90
2023-03-05T04:18:17.907Z,54.00
2023-03-05T04:20:47.705Z,54.10
2023-03-05T04:23:15.410Z,54.20
2023-03-05T04:25:42.681Z,54.20
2023-03-05T04:28:09.981Z,54.20
2023-03-05T04:30:39.576Z,54.20
2023-03-05T04:33:09.491Z,54.20
2023-03-05T04:35:37.080Z,54.30
2023-03-05T04:38:06.917Z,54.30
2023-03-05T04:40:34.616Z,54.20
2023-03-05T04:43:04.118Z,54.20
2023-03-05T04:45:31.821Z,54.30
2023-03-05T04:47:59.581Z,54.30
2023-03-05T04:50:26.971Z,54.30
2023-03-05T04:52:54.638Z,54.30
2023-03-05T04:55:24.395Z,54.30
2023-03-05T04:57:51.646Z,54.30
2023-03-05T05:00:21.794Z,54.40
2023-03-05T05:02:51.285Z,54.40
2023-03-05T05:05:21.502Z,54.40
2023-03-05T05:07:49.212Z,54.30
2023-03-05T05:10:16.969Z,54.30
2023-03-05T05:12:51.371Z,54.40
2023-03-05T05:15:19.238Z,54.40
2023-03-05T05:17:47.207Z,54.40
2023-03-05T05:20:18.297Z,54.40
2023-03-05T05:22:45.689Z,54.60
2023-03-05T05:25:15.091Z,54.50
2023-03-05T05:27:42.527Z,54.50
2023-03-05T05:30:10.615Z,54.20
2023-03-05T05:32:37.985Z,54.20
2023-03-05T05:35:05.711Z,54.20
2023-03-05T05:37:35.372Z,54.30
2023-03-05T05:40:05.377Z,54.30
2023-03-05T05:42:33.386Z,54.20
2023-03-05T05:45:02.950Z,54.10
2023-03-05T05:47:30.769Z,54.20
2023-03-05T05:49:58.143Z,54.00
2023-03-05T05:52:27.992Z,53.90
2023-03-05T05:54:55.287Z,53.90
2023-03-05T05:57:22.582Z,53.90
2023-03-05T05:59:52.438Z,54.00
2023-03-05T06:02:19.754Z,54.30
2023-03-05T06:04:47.188Z,54.40
2023-03-05T06:07:14.486Z,54.70
2023-03-05T06:09:41.924Z,54.70
2023-03-05T06:12:09.279Z,54.70
2023-03-05T06:14:36.784Z,54.50
2023-03-05T06:17:11.242Z,54.40
2023-03-05T06:19:40.211Z,54.60
2023-03-05T06:22:07.858Z,54.60
2023-03-05T06:24:37.654Z,54.70
2023-03-05T06:27:06.016Z,54.60
2023-03-05T06:29:33.400Z,54.70
2023-03-05T06:32:00.758Z,54.60
2023-03-05T06:34:30.336Z,54.70
2023-03-05T06:36:57.677Z,54.70
2023-03-05T06:39:24.928Z,54.80
2023-03-05T06:41:52.306Z,54.80
2023-03-05T06:44:25.779Z,55.00
2023-03-05T06:46:53.204Z,55.10
2023-03-05T06:49:20.807Z,55.20
2023-03-05T06:51:48.206Z,55.30
2023-03-05T06:54:21.349Z,55.50
2023-03-05T06:56:48.620Z,55.50
2023-03-05T06:59:16.934Z,55.50
2023-03-05T07:01:45.363Z,55.60
2023-03-05T07:04:13.691Z,55.60
2023-03-05T07:06:44.761Z,55.60
2023-03-05T07:09:15.200Z,55.60
2023-03-05T07:11:42.715Z,55.70
2023-03-05T07:14:10.068Z,55.60
2023-03-05T07:16:39.559Z,55.70
2023-03-05T07:19:08.013Z,55.80
2023-03-05T07:21:39.860Z,55.80
2023-03-05T07:24:12.348Z,55.90
2023-03-05T07:26:39.618Z,55.80
2023-03-05T07:29:09.375Z,55.70
2023-03-05T07:31:36.960Z,55.70
2023-03-05T07:34:04.405Z,55.70
2023-03-05T07:36:31.889Z,55.80
2023-03-05T07:39:01.982Z,55.80
2023-03-05T07:41:29.308Z,55.80
2023-03-05T07:43:56.722Z,55.80
2023-03-05T07:46:27.764Z,55.60
2023-03-05T07:48:55.865Z,55.60
2023-03-05T07:51:27.156Z,55.60
2023-03-05T07:53:57.546Z,55.50
2023-03-05T07:56:35.356Z,55.40
2023-03-05T07:59:09.266Z,55.40
2023-03-05T08:01:37.346Z,55.40
2023-03-05T08:04:07.178Z,55.50
2023-03-05T08:06:34.517Z,55.40
2023-03-05T08:09:01.843Z,55.40
2023-03-05T08:11:29.355Z,55.60
2023-03-05T08:13:59.558Z,55.50
2023-03-05T08:16:27.717Z,55.50
2023-03-05T08:18:57.371Z,55.50
2023-03-05T08:21:35.796Z,55.40
2023-03-05T08:24:08.152Z,55.50
2023-03-05T08:26:39.524Z,55.40
2023-03-05T08:29:11.046Z,55.40
2023-03-05T08:31:39.509Z,55.50
2023-03-05T08:34:07.219Z,55.30
2023-03-05T08:36:34.540Z,55.30
2023-03-05T08:39:06.777Z,55.30
2023-03-05T08:41:36.721Z,55.30
2023-03-05T08:44:07.194Z,55.10
2023-03-05T08:46:38.914Z,55.10
2023-03-05T08:49:07.433Z,55.20
2023-03-05T08:51:35.947Z,55.20
2023-03-05T08:54:07.533Z,54.90
2023-03-05T08:56:37.662Z,54.90
2023-03-05T08:59:05.838Z,54.90
2023-03-05T09:01:33.230Z,55.00
2023-03-05T09:04:01.231Z,55.10
2023-03-05T09:06:31.092Z,54.90
2023-03-05T09:08:58.405Z,54.90
2023-03-05T09:11:25.783Z,54.90
2023-03-05T09:13:53.040Z,54.90
2023-03-05T09:16:23.388Z,54.80
2023-03-05T09:18:50.751Z,54.70
2023-03-05T09:21:20.811Z,54.60
2023-03-05T09:23:48.229Z,54.70
2023-03-05T09:26:19.481Z,54.80
2023-03-05T09:28:47.785Z,54.90
2023-03-05T09:31:17.740Z,54.80
2023-03-05T09:33:45.080Z,54.80
2023-03-05T09:36:25.186Z,54.80
2023-03-05T09:38:52.844Z,54.20
2023-03-05T09:41:53.988Z,54.20
2023-03-05T09:44:36.298Z,54.00
2023-03-05T09:47:22.457Z,54.20
2023-03-05T09:50:01.541Z,54.00
2023-03-05T09:52:46.643Z,54.00
2023-03-05T09:55:43.910Z,54.20
2023-03-05T09:58:35.706Z,53.90
2023-03-05T10:01:10.820Z,53.60
2023-03-05T10:03:41.267Z,53.70
2023-03-05T10:06:11.625Z,53.70
2023-03-05T10:08:48.903Z,53.70
2023-03-05T10:11:38.043Z,53.50
2023-03-05T10:14:09.280Z,53.30
2023-03-05T10:16:45.518Z,53.40
2023-03-05T10:19:33.170Z,53.40
2023-03-05T10:22:24.322Z,53.50
2023-03-05T10:25:06.642Z,53.90
2023-03-05T10:27:45.767Z,53.50
2023-03-05T10:30:41.209Z,53.20
2023-03-05T10:33:41.922Z,53.30
2023-03-05T10:36:45.994Z,53.60
2023-03-05T10:39:50.245Z,52.80
2023-03-05T10:42:31.347Z,52.60
2023-03-05T10:45:01.181Z,52.80
2023-03-05T10:47:58.543Z,52.70
2023-03-05T10:50:36.609Z,52.90
2023-03-05T10:53:24.414Z,52.80
2023-03-05T10:55:56.202Z,52.20
2023-03-05T10:58:26.524Z,52.00
2023-03-05T11:01:18.927Z,52.50
2023-03-05T11:03:57.838Z,51.60
2023-03-05T11:06:32.239Z,51.40
2023-03-05T11:09:29.278Z,52.00
2023-03-05T11:12:19.666Z,51.60
2023-03-05T11:15:03.788Z,50.90
2023-03-05T11:17:33.127Z,51.30
2023-03-05T11:20:31.605Z,51.30
2023-03-05T11:23:08.728Z,51.00
2023-03-05T11:25:58.672Z,52.10
2023-03-05T11:28:39.496Z,51.70
2023-03-05T11:31:16.099Z,51.50
2023-03-05T11:33:56.815Z,51.30
2023-03-05T11:36:39.081Z,51.40
2023-03-05T11:39:06.599Z,51.40
2023-03-05T11:41:52.597Z,51.20
2023-03-05T11:44:29.569Z,50.90
2023-03-05T11:47:18.806Z,50.40
2023-03-05T11:49:50.458Z,50.30
2023-03-05T11:52:39.021Z,50.50
2023-03-05T11:55:41.420Z,50.40
2023-03-05T11:58:39.442Z,50.70
2023-03-05T12:01:19.388Z,50.80
2023-03-05T12:03:49.816Z,50.80
2023-03-05T12:06:38.373Z,51.00
2023-03-05T12:09:28.413Z,51.10
2023-03-05T12:12:21.804Z,51.00
2023-03-05T12:14:58.120Z,50.80
2023-03-05T12:17:38.653Z,51.00
2023-03-05T12:20:38.512Z,50.90
2023-03-05T12:23:05.880Z,50.70
2023-03-05T12:25:47.066Z,50.80
2023-03-05T12:28:43.152Z,50.90
2023-03-05T12:31:10.515Z,50.90
2023-03-05T12:33:42.955Z,51.00
2023-03-05T12:36:22.088Z,51.00
2023-03-05T12:38:56.905Z,51.00
2023-03-05T12:41:25.433Z,51.20
2023-03-05T12:44:06.359Z,51.00
2023-03-05T12:46:37.491Z,50.80
2023-03-05T12:49:20.444Z,51.00
2023-03-05T12:51:49.898Z,50.50
2023-03-05T12:54:22.949Z,50.90
2023-03-05T12:56:52.296Z,50.60
2023-03-05T12:59:23.327Z,50.60
2023-03-05T13:02:04.875Z,50.40
2023-03-05T13:04:37.042Z,50.60
2023-03-05T13:07:12.668Z,50.60
2023-03-05T13:09:40.065Z,50.30
2023-03-05T13:12:13.977Z,50.40
2023-03-05T13:14:46.641Z,50.60
2023-03-05T13:17:34.750Z,50.50
2023-03-05T13:20:07.514Z,50.60
2023-03-05T13:22:38.972Z,50.30
2023-03-05T13:25:20.638Z,50.50
2023-03-05T13:27:47.972Z,50.60
2023-03-05T13:30:35.562Z,50.40
2023-03-05T13:33:04.784Z,50.00
2023-03-05T13:35:33.063Z,50.30
2023-03-05T13:38:02.619Z,50.20
2023-03-05T13:40:35.082Z,50.10
2023-03-05T13:43:20.668Z,50.20
2023-03-05T13:45:58.512Z,50.20
2023-03-05T13:48:28.105Z,50.30
2023-03-05T13:50:59.147Z,50.50
2023-03-05T13:53:31.591Z,50.40
2023-03-05T13:56:06.290Z,50.40
2023-03-05T13:58:54.460Z,50.70
2023-03-05T14:01:36.885Z,51.30
2023-03-05T14:04:26.256Z,50.80
2023-03-05T14:07:01.417Z,50.50
2023-03-05T14:09:31.771Z,50.30
2023-03-05T14:12:08.731Z,50.60
2023-03-05T14:14:38.162Z,50.70
2023-03-05T14:17:27.658Z,50.80
2023-03-05T14:20:16.814Z,50.20
2023-03-05T14:22:46.226Z,50.30
2023-03-05T14:25:35.473Z,50.30
2023-03-05T14:28:05.567Z,50.60
2023-03-05T14:30:36.360Z,50.30
2023-03-05T14:33:04.557Z,50.00
2023-03-05T14:35:34.363Z,50.20
2023-03-05T14:38:02.062Z,50.30
2023-03-05T14:40:33.198Z,50.20
2023-03-05T14:43:01.261Z,50.20
2023-03-05T14:45:30.099Z,49.70
2023-03-05T14:48:00.401Z,49.80
2023-03-05T14:50:37.606Z,49.80
2023-03-05T14:53:13.725Z,49.70
2023-03-05T14:55:43.869Z,49.90
2023-03-05T14:58:18.774Z,49.90
2023-03-05T15:00:46.100Z,49.60
2023-03-05T15:03:15.325Z,49.50
2023-03-05T15:05:44.618Z,49.50
2023-03-05T15:08:20.380Z,49.60
2023-03-05T15:10:50.153Z,49.50
2023-03-05T15:13:22.447Z,49.80
2023-03-05T15:15:54.057Z,49.60
2023-03-05T15:18:22.724Z,49.40
2023-03-05T15:20:52.030Z,49.60
2023-03-05T15:23:21.927Z,49.50
2023-03-05T15:25:49.587Z,49.40
2023-03-05T15:28:20.398Z,49.20
2023-03-05T15:30:48.038Z,49.00
2023-03-05T15:33:17.471Z,49.10
2023-03-05T15:35:45.412Z,48.90
2023-03-05T15:38:15.333Z,49.00
2023-03-05T15:40:44.208Z,48.70
2023-03-05T15:43:11.705Z,49.00
2023-03-05T15:45:41.301Z,48.70
2023-03-05T15:48:11.199Z,48.60
2023-03-05T15:50:43.759Z,48.70
2023-03-05T15:53:17.018Z,49.00
2023-03-05T15:55:48.943Z,49.20
2023-03-05T15:58:17.334Z,49.00
2023-03-05T16:00:49.644Z,49.00
2023-03-05T16:03:17.196Z,49.20
2023-03-05T16:05:47.598Z,49.40
2023-03-05T16:08:15.318Z,49.60
2023-03-05T16:10:47.266Z,49.50
2023-03-05T16:13:18.607Z,49.40
2023-03-05T16:15:54.187Z,49.50
2023-03-05T16:18:23.039Z,49.70
2023-03-05T16:20:56.387Z,49.30
2023-03-05T16:23:24.562Z,49.30
2023-03-05T16:25:52.649Z,49.40
2023-03-05T16:28:19.981Z,49.50
2023-03-05T16:30:56.268Z,49.60
2023-03-05T16:33:26.031Z,49.80
2023-03-05T16:36:22.827Z,49.80
2023-03-05T16:38:54.907Z,50.00
2023-03-05T16:41:24.375Z,50.10
2023-03-05T16:43:58.184Z,50.30
2023-03-05T16:46:29.857Z,50.50
2023-03-05T16:48:58.441Z,50.50
2023-03-05T16:51:28.901Z,50.50
2023-03-05T16:53:56.354Z,50.50
2023-03-05T16:56:24.053Z,50.40
2023-03-05T16:58:53.720Z,50.50
2023-03-05T17:01:22.012Z,50.50
2023-03-05T17:03:50.771Z,50.70
2023-03-05T17:06:24.051Z,51.30
2023-03-05T17:08:54.929Z,50.80
2023-03-05T17:11:23.669Z,50.60
2023-03-05T17:13:51.208Z,50.60
2023-03-05T17:16:19.873Z,50.70
2023-03-05T17:18:50.754Z,50.50
2023-03-05T17:21:18.090Z,50.60
2023-03-05T17:23:45.699Z,50.60
2023-03-05T17:26:15.981Z,50.60
2023-03-05T17:28:44.094Z,50.70
2023-03-05T17:31:12.771Z,50.60
2023-03-05T17:33:41.719Z,50.50
2023-03-05T17:36:21.925Z,50.50
2023-03-05T17:38:53.213Z,50.30
2023-03-05T17:41:23.765Z,50.40
2023-03-05T17:43:56.168Z,50.40
2023-03-05T17:46:50.167Z,50.50
2023-03-05T17:49:20.367Z,50.40
2023-03-05T17:51:56.417Z,50.30
2023-03-05T17:54:24.088Z,50.00
2023-03-05T17:56:57.987Z,50.10
2023-03-05T17:59:26.259Z,50.20
2023-03-05T18:01:54.047Z,50.40
2023-03-05T18:07:55.306Z,50.30
2023-03-05T18:10:25.074Z,50.30
2023-03-05T18:12:55.531Z,50.30
2023-03-05T18:15:27.744Z,50.20
2023-03-05T18:18:00.637Z,50.40
2023-03-05T18:20:34.478Z,50.20
2023-03-05T18:23:12.672Z,50.10
2023-03-05T18:25:44.728Z,50.30
2023-03-05T18:28:14.846Z,50.30
2023-03-05T18:30:46.418Z,50.20
2023-03-05T18:33:23.145Z,50.10
2023-03-05T18:35:56.571Z,49.90
2023-03-05T18:38:26.034Z,50.00
2023-03-05T18:40:58.259Z,50.10
2023-03-05T18:43:25.757Z,50.20
2023-03-05T18:46:31.882Z,50.30
2023-03-05T18:49:02.031Z,50.20
2023-03-05T18:51:29.996Z,50.40
2023-03-05T18:53:57.717Z,50.40
2023-03-05T18:56:25.994Z,50.40
2023-03-05T18:58:58.883Z,50.40
2023-03-05T19:01:27.905Z,50.30
2023-03-05T19:03:55.918Z,50.50
2023-03-05T19:06:26.329Z,50.40
2023-03-05T19:09:47.065Z,50.30
2023-03-05T19:12:19.710Z,50.30
2023-03-05T19:14:49.556Z,50.30
2023-03-05T19:17:17.247Z,50.20
2023-03-05T19:19:50.234Z,49.90
2023-03-05T19:22:17.715Z,49.70
2023-03-05T19:25:17.342Z,50.20
2023-03-05T19:27:47.479Z,49.90
2023-03-05T19:30:23.439Z,49.90
2023-03-05T19:32:58.099Z,49.80
2023-03-05T19:35:26.165Z,49.60
2023-03-05T19:37:57.041Z,49.60
2023-03-05T19:40:24.580Z,49.60
2023-03-05T19:42:52.210Z,49.70
2023-03-05T19:45:22.455Z,49.80
2023-03-05T19:47:49.972Z,49.50
2023-03-05T19:50:17.579Z,49.60
2023-03-05T19:52:52.973Z,49.50
2023-03-05T19:55:23.211Z,49.50
2023-03-05T19:57:50.668Z,49.70
2023-03-05T20:00:19.188Z,49.70
2023-03-05T20:02:48.826Z,49.80
2023-03-05T20:05:16.832Z,49.80
2023-03-05T20:07:44.677Z,49.90
2023-03-05T20:10:14.516Z,49.90
2023-03-05T20:12:48.139Z,50.00
2023-03-05T20:15:18.480Z,49.90
2023-03-05T20:17:48.638Z,49.90
2023-03-05T20:20:18.312Z,50.10
2023-03-05T20:22:50.418Z,50.10
2023-03-05T20:25:24.797Z,50.10
2023-03-05T20:27:52.732Z,50.20
2023-03-05T20:30:20.580Z,50.20
2023-03-05T20:32:48.092Z,50.20
2023-03-05T20:35:18.101Z,50.10
2023-03-05T20:38:31.184Z,50.00
2023-03-05T20:41:07.521Z,50.20
2023-03-05T20:43:41.286Z,50.20
2023-03-05T20:46:24.992Z,50.20
2023-03-05T20:48:55.905Z,50.30
2023-03-05T20:51:27.121Z,50.50
2023-03-05T20:53:58.367Z,50.30
2023-03-05T20:56:29.611Z,50.50
2023-03-05T20:59:00.470Z,50.50
2023-03-05T21:01:28.836Z,50.40
2023-03-05T21:03:59.933Z,50.50
2023-03-05T21:06:38.854Z,50.70
2023-03-05T21:09:07.200Z,50.60
2023-03-05T21:11:35.985Z,50.60
2023-03-05T21:14:03.591Z,50.80
2023-03-05T21:16:30.991Z,50.90
2023-03-05T21:18:58.539Z,50.90
2023-03-05T21:21:26.131Z,50.90
2023-03-05T21:23:58.893Z,50.90
2023-03-05T21:26:30.857Z,51.10
2023-03-05T21:28:59.748Z,51.00
2023-03-05T21:31:30.272Z,51.00
2023-03-05T21:33:57.798Z,51.10
2023-03-05T21:36:25.488Z,51.10
2023-03-05T21:38:55.423Z,51.20
2023-03-05T21:41:27.727Z,51.10
2023-03-05T21:43:55.283Z,51.30
2023-03-05T21:46:25.135Z,51.30
2023-03-05T21:48:52.733Z,51.50
2023-03-05T21:52:03.765Z,51.40
2023-03-05T21:54:31.321Z,51.70
2023-03-05T21:57:01.740Z,51.60
2023-03-05T21:59:32.153Z,51.50
2023-03-05T22:01:59.833Z,51.50
2023-03-05T22:04:27.951Z,51.50
2023-03-05T22:06:56.340Z,51.60
2023-03-05T22:09:24.709Z,51.70
2023-03-05T22:11:52.489Z,51.80
2023-03-05T22:14:20.707Z,51.80
2023-03-05T22:16:52.022Z,51.80
2023-03-05T22:19:22.520Z,51.70
2023-03-05T22:21:53.226Z,51.80
2023-03-05T22:24:29.530Z,51.60
2023-03-05T22:26:56.804Z,51.50
2023-03-05T22:29:24.332Z,51.50
2023-03-05T22:31:56.609Z,51.50
2023-03-05T22:34:29.947Z,51.40
2023-03-05T22:36:58.282Z,51.50
2023-03-05T22:39:28.098Z,51.70
2023-03-05T22:41:55.669Z,51.70
2023-03-05T22:44:25.038Z,51.50
2023-03-05T22:46:52.497Z,51.50
2023-03-05T22:49:27.710Z,51.60
2023-03-05T22:52:01.663Z,51.80
2023-03-05T22:54:29.299Z,51.60
2023-03-05T22:56:56.723Z,51.50
2023-03-05T22:59:25.046Z,51.40
2023-03-05T23:01:52.590Z,51.30
2023-03-05T23:04:51.324Z,51.20
2023-03-05T23:07:26.308Z,51.30
2023-03-05T23:10:04.916Z,51.00
2023-03-05T23:12:37.561Z,50.80
2023-03-05T23:15:12.073Z,50.90
2023-03-05T23:17:39.699Z,50.80
2023-03-05T23:20:10.141Z,50.80
2023-03-05T23:22:41.583Z,51.00
2023-03-05T23:25:22.149Z,51.10
2023-03-05T23:27:53.243Z,51.00
2023-03-05T23:30:29.018Z,51.20
2023-03-05T23:32:59.949Z,51.10
2023-03-05T23:35:44.712Z,51.40
2023-03-05T23:38:13.742Z,51.20
2023-03-05T23:40:47.030Z,51.10
2023-03-05T23:43:15.863Z,51.20
2023-03-05T23:45:45.288Z,51.40
2023-03-05T23:48:12.829Z,51.30
2023-03-05T23:50:42.341Z,51.20
2023-03-05T23:53:22.868Z,51.40
2023-03-05T23:55:53.461Z,51.60
2023-03-05T23:58:24.817Z,51.80
